createdAt,value
2024-05-09T00:02:54.816Z,100953.94
2024-05-09T00:07:57.378Z,100951.63
2024-05-09T00:12:59.939Z,100954.22
2024-05-09T00:18:03.246Z,100947.00
2024-05-09T00:23:07.664Z,100953.47
2024-05-09T00:28:11.684Z,100958.91
2024-05-09T00:33:14.601Z,100955.13
2024-05-09T00:38:17.429Z,100951.38
2024-05-09T00:43:20.028Z,100947.97
2024-05-09T00:48:22.679Z,100951.75
2024-05-09T00:53:26.473Z,100950.50
2024-05-09T00:58:30.772Z,100949.72
2024-05-09T01:03:33.542Z,100948.44
2024-05-09T01:08:36.366Z,100950.19
2024-05-09T01:13:39.024Z,100948.09
2024-05-09T01:18:41.676Z,100950.97
2024-05-09T01:23:44.237Z,100951.44
2024-05-09T01:28:46.850Z,100955.94
2024-05-09T01:33:49.555Z,100953.34
2024-05-09T01:38:52.178Z,100954.84
2024-05-09T01:43:54.849Z,100958.19
2024-05-09T01:48:57.723Z,100952.53
2024-05-09T01:54:00.330Z,100956.19
2024-05-09T01:59:02.929Z,100954.47
2024-05-09T02:04:06.954Z,100956.00
2024-05-09T02:09:10.080Z,100953.00
2024-05-09T02:14:12.967Z,100954.19
2024-05-09T02:19:15.757Z,100955.06
2024-05-09T02:24:18.416Z,100948.00
2024-05-09T02:29:21.230Z,100953.16
2024-05-09T02:34:24.438Z,100954.31
2024-05-09T02:39:26.993Z,100958.19
2024-05-09T02:44:29.556Z,100953.38
2024-05-09T02:49:32.274Z,100952.97
2024-05-09T02:54:34.850Z,100951.91
2024-05-09T02:59:37.433Z,100961.34
2024-05-09T03:04:40.078Z,100962.84
2024-05-09T03:09:48.690Z,100960.97
2024-05-09T03:14:51.379Z,100953.13
2024-05-09T03:19:53.972Z,100966.06
2024-05-09T03:24:56.492Z,100968.13
2024-05-09T03:29:59.313Z,100967.34
2024-05-09T03:35:01.825Z,100971.59
2024-05-09T03:40:09.187Z,100963.84
2024-05-09T03:45:14.301Z,100958.25
2024-05-09T03:50:22.765Z,100961.91
2024-05-09T03:55:32.345Z,100966.81
2024-05-09T04:00:38.691Z,100965.66
2024-05-09T04:05:44.606Z,100966.75
2024-05-09T04:10:48.493Z,100965.94
2024-05-09T04:15:51.079Z,100980.34
2024-05-09T04:20:53.710Z,100981.09
2024-05-09T04:25:56.403Z,100982.31
2024-05-09T04:30:58.966Z,100977.66
2024-05-09T04:36:01.512Z,100979.25
2024-05-09T04:41:04.121Z,100979.34
2024-05-09T04:46:06.715Z,100986.31
2024-05-09T04:51:09.261Z,100982.16
2024-05-09T04:56:11.875Z,100980.41
2024-05-09T05:01:16.408Z,100985.81
2024-05-09T05:06:18.999Z,100995.19
2024-05-09T05:11:21.737Z,100993.72
2024-05-09T05:16:24.340Z,100999.94
2024-05-09T05:21:27.094Z,101001.25
2024-05-09T05:26:29.835Z,101010.69
2024-05-09T05:31:32.408Z,101006.47
2024-05-09T05:36:34.974Z,101008.22
2024-05-09T05:41:37.555Z,101010.00
2024-05-09T05:46:40.274Z,101012.69
2024-05-09T05:51:42.895Z,101006.66
2024-05-09T05:56:45.547Z,101013.78
2024-05-09T06:01:48.107Z,101015.44
2024-05-09T06:06:50.879Z,101016.81
2024-05-09T06:11:53.682Z,101020.00
2024-05-09T06:16:58.199Z,101020.13
2024-05-09T06:22:01.754Z,101008.94
2024-05-09T06:27:06.200Z,101019.91
2024-05-09T06:32:08.828Z,101026.34
2024-05-09T06:37:11.364Z,101021.47
2024-05-09T06:42:14.027Z,101020.69
2024-05-09T06:47:16.713Z,101026.06
2024-05-09T06:52:19.579Z,101023.34
2024-05-09T06:57:23.242Z,101020.53
2024-05-09T07:02:25.974Z,101025.97
2024-05-09T07:07:29.439Z,101023.44
2024-05-09T07:12:32.664Z,101022.84
2024-05-09T07:17:35.683Z,101019.97
2024-05-09T07:22:38.375Z,101015.94
2024-05-09T07:27:40.869Z,101012.72
2024-05-09T07:32:45.126Z,101005.38
2024-05-09T07:37:48.116Z,100994.03
2024-05-09T07:42:50.683Z,100983.69
2024-05-09T07:49:43.603Z,100984.84
2024-05-09T07:53:37.847Z,100979.78
2024-05-09T07:58:38.956Z,100976.38
2024-05-09T08:03:41.764Z,100969.19
2024-05-09T08:08:46.795Z,100969.97
2024-05-09T08:13:49.296Z,100967.25
2024-05-09T08:18:51.979Z,100959.16
2024-05-09T08:23:54.579Z,100953.00
2024-05-09T08:28:57.091Z,100956.28
2024-05-09T08:33:59.753Z,100956.84
2024-05-09T08:39:02.386Z,100951.53
2024-05-09T08:44:05.417Z,100952.63
2024-05-09T08:49:09.093Z,100937.44
2024-05-09T08:54:12.161Z,100945.09
2024-05-09T08:59:21.792Z,100932.22
2024-05-09T09:04:25.307Z,100920.84
2024-05-09T09:09:28.550Z,100919.25
2024-05-09T09:14:31.163Z,100923.84
2024-05-09T09:19:34.584Z,100926.94
2024-05-09T09:24:38.514Z,100925.59
2024-05-09T09:29:41.451Z,100919.66
2024-05-09T09:34:44.679Z,100918.63
2024-05-09T09:39:49.160Z,100911.69
2024-05-09T09:45:02.082Z,100902.06
2024-05-09T09:50:14.433Z,100898.25
2024-05-09T09:55:22.804Z,100892.94
2024-05-09T10:00:32.953Z,100885.59
2024-05-09T10:05:37.434Z,100882.66
2024-05-09T10:10:47.933Z,100881.28
2024-05-09T10:15:54.601Z,100875.50
2024-05-09T10:20:57.670Z,100876.34
2024-05-09T10:26:06.286Z,100876.25
2024-05-09T10:31:13.578Z,100859.69
2024-05-09T10:36:23.649Z,100856.19
2024-05-09T10:41:26.406Z,100853.94
2024-05-09T10:46:29.014Z,100855.66
2024-05-09T10:51:31.799Z,100842.38
2024-05-09T10:56:34.329Z,100845.16
2024-05-09T11:01:37.273Z,100835.75
2024-05-09T11:06:40.614Z,100829.41
2024-05-09T11:11:43.280Z,100827.47
2024-05-09T11:16:45.850Z,100814.59
2024-05-09T11:21:52.072Z,100814.78
2024-05-09T11:26:54.606Z,100814.31
2024-05-09T11:31:57.118Z,100805.47
2024-05-09T11:36:59.748Z,100798.31
2024-05-09T11:42:02.309Z,100799.84
2024-05-09T11:47:05.214Z,100789.66
2024-05-09T11:52:07.795Z,100779.19
2024-05-09T11:57:10.591Z,100771.75
2024-05-09T12:02:13.522Z,100768.66
2024-05-09T12:07:18.003Z,100762.94
2024-05-09T12:12:20.643Z,100759.63
2024-05-09T12:17:23.240Z,100768.84
2024-05-09T12:22:25.996Z,100750.44
2024-05-09T12:27:29.040Z,100741.81
2024-05-09T12:32:32.185Z,100738.38
2024-05-09T12:37:34.967Z,100736.34
2024-05-09T12:42:37.634Z,100738.00
2024-05-09T12:47:40.614Z,100732.16
2024-05-09T12:52:43.700Z,100713.22
2024-05-09T12:57:48.989Z,100716.59
2024-05-09T13:02:52.362Z,100709.75
2024-05-09T13:07:57.037Z,100700.00
2024-05-09T13:13:00.888Z,100700.16
2024-05-09T13:18:05.104Z,100696.38
2024-05-09T13:23:09.137Z,100695.22
2024-05-09T13:28:13.075Z,100692.19
2024-05-09T13:33:15.913Z,100683.25
2024-05-09T13:38:20.527Z,100667.41
2024-05-09T13:43:23.988Z,100662.16
2024-05-09T13:48:26.764Z,100660.03
2024-05-09T13:53:29.290Z,100656.31
2024-05-09T13:58:32.058Z,100646.97
2024-05-09T14:03:34.804Z,100652.75
2024-05-09T14:08:37.441Z,100642.94
2024-05-09T14:13:40.138Z,100644.75
2024-05-09T14:18:43.714Z,100634.00
2024-05-09T14:23:46.290Z,100623.94
2024-05-09T14:28:50.185Z,100619.13
2024-05-09T14:33:53.215Z,100614.91
2024-05-09T14:38:57.368Z,100604.53
2024-05-09T14:44:00.573Z,100614.06
2024-05-09T14:49:04.004Z,100603.03
2024-05-09T14:54:06.982Z,100602.97
2024-05-09T14:59:09.522Z,100601.69
2024-05-09T15:04:12.162Z,100595.06
2024-05-09T15:09:15.075Z,100590.22
2024-05-09T15:18:50.551Z,100576.53
2024-05-09T15:23:53.219Z,100571.72
2024-05-09T15:28:55.737Z,100569.13
2024-05-09T15:33:58.396Z,100569.63
2024-05-09T15:39:01.079Z,100570.19
2024-05-09T15:44:03.629Z,100558.25
2024-05-09T15:49:06.380Z,100567.25
2024-05-09T15:54:08.957Z,100555.03
2024-05-09T15:59:11.748Z,100544.81
2024-05-09T16:04:15.180Z,100542.56
2024-05-09T16:09:18.372Z,100539.50
2024-05-09T16:14:21.033Z,100539.59
2024-05-09T16:19:23.632Z,100537.28
2024-05-09T16:24:26.271Z,100532.13
2024-05-09T16:29:28.822Z,100530.91
2024-05-09T16:34:31.414Z,100530.59
2024-05-09T16:39:33.951Z,100521.06
2024-05-09T16:44:36.494Z,100516.19
2024-05-09T16:49:39.034Z,100512.41
2024-05-09T16:54:41.686Z,100506.94
2024-05-09T16:59:44.209Z,100515.22
2024-05-09T17:04:46.845Z,100513.16
2024-05-09T17:09:49.643Z,100516.59
2024-05-09T17:14:52.286Z,100510.84
2024-05-09T17:19:54.853Z,100522.47
2024-05-09T17:24:57.457Z,100516.03
2024-05-09T17:30:00.023Z,100519.88
2024-05-09T17:35:02.932Z,100519.47
2024-05-09T17:40:14.356Z,100510.69
2024-05-09T17:45:20.711Z,100523.03
2024-05-09T17:50:30.331Z,100518.97
2024-05-09T17:55:37.666Z,100528.75
2024-05-09T18:00:42.390Z,100528.22
2024-05-09T18:05:45.760Z,100526.22
2024-05-09T18:10:48.752Z,100532.84
2024-05-09T18:15:53.306Z,100535.13
2024-05-09T18:20:55.940Z,100533.38
2024-05-09T18:25:58.503Z,100525.22
2024-05-09T18:31:02.205Z,100542.44
2024-05-09T18:36:04.854Z,100539.84
2024-05-09T18:41:07.704Z,100543.38
2024-05-09T18:46:10.752Z,100548.25
2024-05-09T18:51:14.690Z,100551.72
2024-05-09T18:56:17.252Z,100562.75
2024-05-09T19:01:20.641Z,100557.22
2024-05-09T19:06:24.834Z,100563.66
2024-05-09T19:11:27.513Z,100564.47
2024-05-09T19:16:30.311Z,100571.41
2024-05-09T19:21:33.652Z,100568.72
2024-05-09T19:26:37.112Z,100573.56
2024-05-09T19:31:39.899Z,100580.28
2024-05-09T19:36:42.890Z,100582.25
2024-05-09T19:41:45.407Z,100585.84
2024-05-09T19:46:48.776Z,100581.44
2024-05-09T19:51:51.596Z,100587.38
2024-05-09T19:56:57.531Z,100591.63
2024-05-09T20:02:01.791Z,100586.56
2024-05-09T20:07:05.148Z,100591.28
2024-05-09T20:12:09.870Z,100596.16
2024-05-09T20:17:13.126Z,100599.44
2024-05-09T20:22:17.017Z,100613.41
2024-05-09T20:27:21.973Z,100612.25
2024-05-09T20:32:25.707Z,100608.56
2024-05-09T20:37:28.645Z,100620.69
2024-05-09T20:42:31.750Z,100620.25
2024-05-09T20:47:35.409Z,100631.31
2024-05-09T20:52:39.095Z,100619.81
2024-05-09T20:57:42.824Z,100627.41
2024-05-09T21:02:47.274Z,100624.00
2024-05-09T21:07:51.059Z,100618.06
2024-05-09T21:12:54.684Z,100633.53
2024-05-09T21:17:59.901Z,100626.75
2024-05-09T21:23:03.786Z,100617.34
2024-05-09T21:28:08.045Z,100627.66
2024-05-09T21:33:14.430Z,100631.53
2024-05-09T21:38:18.048Z,100628.34
2024-05-09T21:43:20.811Z,100641.13
2024-05-09T21:48:23.529Z,100635.78
2024-05-09T21:53:26.103Z,100643.75
2024-05-09T21:58:28.987Z,100633.53
2024-05-09T22:03:31.681Z,100640.59
2024-05-09T22:08:34.286Z,100644.72
2024-05-09T22:13:36.844Z,100648.66
2024-05-09T22:18:39.592Z,100652.13
2024-05-09T22:23:42.276Z,100653.53
2024-05-09T22:28:44.873Z,100647.13
2024-05-09T22:33:48.228Z,100648.41
2024-05-09T22:38:51.097Z,100638.91
2024-05-09T22:43:53.663Z,100636.56
2024-05-09T22:48:56.359Z,100639.63
2024-05-09T22:53:59.255Z,100637.19
2024-05-09T22:59:02.043Z,100642.88
2024-05-09T23:04:04.800Z,100640.19
2024-05-09T23:09:08.282Z,100637.16
2024-05-09T23:14:12.578Z,100637.84
2024-05-09T23:19:15.284Z,100640.75
2024-05-09T23:24:17.821Z,100637.03
2024-05-09T23:29:20.479Z,100643.56
2024-05-09T23:34:23.233Z,100637.38
2024-05-09T23:39:25.842Z,100634.47
2024-05-09T23:44:28.410Z,100632.31
2024-05-09T23:49:31.078Z,100630.38
2024-05-09T23:54:33.699Z,100632.22
2024-05-09T23:59:36.266Z,100628.22
